Time;durP1;ratioP1;P1;durP2;ratioP2;P2;SDS_P1;SDS_P2;PMS_P1;PMS_P2;Temp;Humidity;BMP_temperature;BMP_pressure;BME280_temperature;BME280_humidity;BME280_pressure;Samples;Min_cycle;Max_cycle;Signal;HPM_P1;HPM_P2
2024/01/18 00:01:40;;;;;;;6.38;4.25;;;3.90;99.90;;;;;;5048787;28;20197;-89
2024/01/18 00:04:26;;;;;;;5.03;4.47;;;3.90;99.90;;;;;;5049027;28;20229;-89
2024/01/18 00:07:13;;;;;;;4.60;4.20;;;3.80;99.90;;;;;;5049153;28;20706;-88
2024/01/18 00:09:58;;;;;;;4.10;3.65;;;3.80;99.90;;;;;;5052257;28;20725;-88
2024/01/18 00:12:45;;;;;;;5.00;4.35;;;3.80;99.90;;;;;;5051183;28;20225;-88
2024/01/18 00:15:31;;;;;;;5.13;4.57;;;3.80;99.90;;;;;;5038141;28;20795;-88
2024/01/18 00:18:17;;;;;;;4.63;4.18;;;3.80;99.90;;;;;;5050740;28;20594;-89
2024/01/18 00:21:07;;;;;;;5.03;4.53;;;3.70;99.90;;;;;;5035161;28;20194;-89
2024/01/18 00:23:54;;;;;;;4.93;4.40;;;3.70;99.90;;;;;;5047527;28;20593;-89
2024/01/18 00:26:40;;;;;;;5.25;4.65;;;3.70;99.90;;;;;;5049732;28;20206;-89
2024/01/18 00:29:27;;;;;;;6.00;5.00;;;3.70;99.90;;;;;;5034981;28;20229;-89
2024/01/18 00:32:14;;;;;;;6.72;5.35;;;3.70;99.90;;;;;;5030335;28;20206;-88
2024/01/18 00:35:01;;;;;;;5.95;5.35;;;3.70;99.90;;;;;;5037599;28;20228;-88
2024/01/18 00:37:47;;;;;;;6.90;5.60;;;3.70;99.90;;;;;;5049725;28;20247;-88
2024/01/18 00:40:34;;;;;;;6.60;5.93;;;3.70;99.90;;;;;;5048787;28;20687;-88
2024/01/18 00:43:20;;;;;;;6.22;5.63;;;3.70;99.90;;;;;;5051238;28;20252;-89
2024/01/18 00:46:06;;;;;;;6.95;6.25;;;3.70;99.90;;;;;;5046739;28;20214;-89
2024/01/18 00:48:51;;;;;;;7.10;6.00;;;3.70;99.90;;;;;;5036628;28;20319;-89
2024/01/18 00:51:37;;;;;;;7.05;5.65;;;3.70;99.90;;;;;;5045863;28;20711;-88
2024/01/18 00:54:23;;;;;;;8.55;6.63;;;3.70;99.90;;;;;;5036360;28;20890;-88
2024/01/18 00:57:10;;;;;;;8.00;6.40;;;3.70;99.90;;;;;;5039000;28;20273;-87
2024/01/18 00:59:56;;;;;;;6.72;5.88;;;3.70;99.90;;;;;;5049582;28;20272;-89
2024/01/18 01:02:42;;;;;;;8.10;7.05;;;3.70;99.90;;;;;;5047143;28;20605;-88
2024/01/18 01:05:27;;;;;;;11.60;7.32;;;3.60;99.90;;;;;;5041567;28;20582;-89
2024/01/18 01:08:13;;;;;;;9.02;6.88;;;3.70;99.90;;;;;;5047253;28;20234;-89
2024/01/18 01:10:59;;;;;;;7.40;6.70;;;3.60;99.90;;;;;;5048742;28;20244;-88
2024/01/18 01:13:46;;;;;;;8.57;7.68;;;3.60;99.90;;;;;;5047352;28;20228;-87
2024/01/18 01:16:32;;;;;;;6.85;6.15;;;3.70;99.90;;;;;;5046501;28;20259;-89
2024/01/18 01:19:17;;;;;;;9.02;7.75;;;3.70;99.90;;;;;;5051315;28;20481;-90
2024/01/18 01:22:03;;;;;;;10.85;8.32;;;3.60;99.90;;;;;;5050984;28;20300;-88
2024/01/18 01:24:49;;;;;;;10.55;9.20;;;3.50;99.90;;;;;;5044175;28;20680;-88
2024/01/18 01:27:34;;;;;;;9.75;8.35;;;3.50;99.90;;;;;;5051108;28;20224;-89
2024/01/18 01:30:22;;;;;;;11.48;9.60;;;3.30;99.90;;;;;;5048641;28;20249;-88
2024/01/18 01:33:08;;;;;;;12.57;10.23;;;3.30;99.90;;;;;;5051561;28;20246;-88
2024/01/18 01:35:54;;;;;;;12.15;10.23;;;3.40;99.90;;;;;;5050116;28;20247;-89
2024/01/18 01:38:39;;;;;;;11.73;10.13;;;3.40;99.90;;;;;;5049264;28;20197;-88
2024/01/18 01:41:25;;;;;;;11.45;9.75;;;3.40;99.90;;;;;;5049005;28;20209;-88
2024/01/18 01:44:11;;;;;;;9.90;8.50;;;3.30;99.90;;;;;;5035112;28;20276;-88
2024/01/18 01:46:58;;;;;;;11.43;9.38;;;3.20;99.90;;;;;;5044553;28;20217;-89
2024/01/18 01:49:44;;;;;;;10.05;8.93;;;3.20;99.90;;;;;;5029645;28;20225;-89
2024/01/18 01:52:32;;;;;;;10.68;8.88;;;3.10;99.90;;;;;;5038516;28;20256;-88
2024/01/18 01:55:18;;;;;;;10.23;8.88;;;3.10;99.90;;;;;;5050953;28;20345;-89
2024/01/18 01:58:04;;;;;;;9.38;8.13;;;3.10;99.90;;;;;;5043422;28;20305;-89
2024/01/18 02:00:49;;;;;;;8.77;7.88;;;3.10;99.90;;;;;;5046991;28;20272;-89
2024/01/18 02:03:36;;;;;;;9.65;7.78;;;3.10;99.90;;;;;;5031068;28;20346;-89
2024/01/18 02:06:22;;;;;;;11.35;9.10;;;3.00;99.90;;;;;;5038214;28;20204;-88
2024/01/18 02:09:09;;;;;;;8.93;7.82;;;3.00;99.90;;;;;;5049736;28;20209;-88
2024/01/18 02:11:55;;;;;;;10.07;8.43;;;3.00;99.90;;;;;;5045470;28;20205;-88
2024/01/18 02:14:45;;;;;;;10.32;8.05;;;3.00;99.90;;;;;;5034472;28;20641;-88
2024/01/18 02:17:31;;;;;;;9.40;8.30;;;2.90;99.90;;;;;;5049219;28;20882;-89
2024/01/18 02:20:19;;;;;;;9.57;7.68;;;2.80;99.90;;;;;;5049868;28;20217;-89
2024/01/18 02:23:07;;;;;;;9.30;8.27;;;2.80;99.90;;;;;;5045947;28;20224;-88
2024/01/18 02:25:56;;;;;;;8.35;7.50;;;2.90;99.90;;;;;;5051182;28;20204;-88
2024/01/18 02:28:54;;;;;;;8.50;7.70;;;2.80;99.90;;;;;;5046374;28;20213;-89
2024/01/18 02:31:40;;;;;;;9.20;7.43;;;2.90;99.90;;;;;;5046426;28;20208;-88
2024/01/18 02:34:26;;;;;;;8.88;7.18;;;2.90;99.90;;;;;;5027186;28;20283;-89
2024/01/18 02:37:12;;;;;;;8.88;7.50;;;2.90;99.90;;;;;;5053992;28;20197;-88
2024/01/18 02:39:58;;;;;;;10.15;8.23;;;3.00;99.90;;;;;;5051717;28;20640;-89
2024/01/18 02:42:45;;;;;;;8.80;7.05;;;3.00;99.90;;;;;;5047679;28;20434;-89
2024/01/18 02:45:31;;;;;;;8.80;7.85;;;2.90;99.90;;;;;;5055259;28;20239;-88
2024/01/18 02:48:17;;;;;;;8.27;7.47;;;2.80;99.90;;;;;;5038617;28;20202;-88
2024/01/18 02:51:03;;;;;;;7.70;6.88;;;2.80;99.90;;;;;;5039322;28;20317;-89
2024/01/18 02:53:48;;;;;;;8.75;7.80;;;2.90;99.90;;;;;;5040498;28;20249;-89
2024/01/18 02:56:34;;;;;;;9.98;7.75;;;2.80;99.90;;;;;;5035345;28;20356;-88
2024/01/18 02:59:21;;;;;;;9.80;8.30;;;2.80;99.90;;;;;;5054592;28;20200;-89
2024/01/18 03:02:07;;;;;;;9.25;7.95;;;2.70;99.90;;;;;;5037930;28;20202;-88
2024/01/18 03:04:53;;;;;;;10.30;8.75;;;2.80;99.90;;;;;;5023560;28;20569;-89
2024/01/18 03:07:39;;;;;;;10.90;8.52;;;2.80;99.90;;;;;;5035966;28;20237;-88
2024/01/18 03:10:25;;;;;;;10.57;9.13;;;2.70;99.90;;;;;;5023740;28;20297;-89
2024/01/18 03:13:10;;;;;;;9.63;8.20;;;2.70;99.90;;;;;;5026727;28;20318;-89
2024/01/18 03:15:57;;;;;;;9.52;8.30;;;2.60;99.90;;;;;;5035029;28;20593;-89
2024/01/18 03:18:46;;;;;;;10.40;9.23;;;2.70;99.90;;;;;;5020629;28;20668;-87
2024/01/18 03:21:31;;;;;;;12.18;10.82;;;2.70;99.90;;;;;;5022866;28;20221;-89
2024/01/18 03:24:18;;;;;;;10.68;9.52;;;2.60;99.90;;;;;;5028590;28;20245;-89
2024/01/18 03:27:04;;;;;;;10.75;9.20;;;2.60;99.90;;;;;;5028411;28;20194;-89
2024/01/18 03:29:50;;;;;;;12.32;10.82;;;2.60;99.90;;;;;;5049233;28;20253;-89
2024/01/18 03:32:37;;;;;;;13.07;10.70;;;2.50;99.90;;;;;;5028004;28;20198;-89
2024/01/18 03:35:23;;;;;;;14.32;11.02;;;2.50;99.90;;;;;;5027014;28;22563;-89
2024/01/18 03:38:08;;;;;;;11.35;10.15;;;2.50;99.90;;;;;;5030411;28;20233;-89
2024/01/18 03:40:54;;;;;;;11.82;10.40;;;2.50;99.90;;;;;;5032785;28;20210;-89
2024/01/18 03:43:40;;;;;;;11.30;10.00;;;2.60;99.90;;;;;;5023737;28;20226;-88
2024/01/18 03:46:26;;;;;;;16.85;10.95;;;2.60;99.90;;;;;;5022940;28;20253;-89
2024/01/18 03:49:13;;;;;;;12.20;10.90;;;2.70;99.90;;;;;;5023376;28;20211;-87
2024/01/18 03:51:58;;;;;;;13.35;11.27;;;2.70;99.90;;;;;;5026869;28;20198;-89
2024/01/18 03:54:47;;;;;;;12.60;10.32;;;2.70;99.90;;;;;;5023943;28;20580;-88
2024/01/18 03:57:33;;;;;;;15.40;12.95;;;2.70;99.90;;;;;;5020529;28;20201;-90
2024/01/18 04:00:19;;;;;;;15.90;12.57;;;2.60;99.90;;;;;;5020835;28;20593;-89
2024/01/18 04:03:06;;;;;;;13.93;12.05;;;2.60;99.90;;;;;;5022365;28;20222;-89
2024/01/18 04:05:53;;;;;;;15.52;11.57;;;2.60;99.90;;;;;;5022213;28;20218;-88
2024/01/18 04:08:39;;;;;;;14.05;11.50;;;2.60;99.90;;;;;;5029601;28;20268;-89
2024/01/18 04:11:25;;;;;;;15.20;11.80;;;2.60;99.90;;;;;;5040539;28;20296;-88
2024/01/18 04:14:10;;;;;;;14.68;11.77;;;2.60;99.90;;;;;;5023080;28;20312;-89
2024/01/18 04:16:56;;;;;;;15.05;12.70;;;2.50;99.90;;;;;;5028155;28;20198;-89
2024/01/18 04:19:42;;;;;;;14.73;11.55;;;2.50;99.90;;;;;;5031100;28;20195;-89
2024/01/18 04:22:29;;;;;;;16.65;13.00;;;2.50;99.90;;;;;;5020948;28;20288;-89
2024/01/18 04:25:15;;;;;;;16.05;13.68;;;2.50;99.90;;;;;;5035123;28;20283;-88
2024/01/18 04:28:01;;;;;;;19.33;13.60;;;2.50;99.90;;;;;;5022746;28;20217;-89
2024/01/18 04:30:47;;;;;;;23.40;16.98;;;2.50;99.90;;;;;;5017116;28;20221;-88
2024/01/18 04:33:33;;;;;;;17.50;14.63;;;2.40;99.90;;;;;;5021605;28;20218;-89
2024/01/18 04:36:18;;;;;;;18.45;14.80;;;2.50;99.90;;;;;;5032667;28;20198;-89
2024/01/18 04:39:06;;;;;;;18.65;14.48;;;2.40;99.90;;;;;;5025487;28;20593;-88
2024/01/18 04:41:52;;;;;;;19.92;15.30;;;2.30;99.90;;;;;;5021727;28;20193;-88
2024/01/18 04:44:39;;;;;;;18.83;14.73;;;2.40;99.90;;;;;;5022919;28;20778;-88
2024/01/18 04:47:25;;;;;;;19.92;15.98;;;2.40;99.90;;;;;;5018814;28;20200;-88
2024/01/18 04:50:11;;;;;;;18.45;14.45;;;2.30;99.90;;;;;;5020178;28;20225;-88
2024/01/18 04:52:57;;;;;;;17.92;15.25;;;2.40;99.90;;;;;;5021714;28;20218;-88
2024/01/18 04:55:44;;;;;;;20.35;16.15;;;2.40;99.90;;;;;;5030586;28;20621;-88
2024/01/18 04:58:30;;;;;;;20.02;16.05;;;2.40;99.90;;;;;;5028880;28;20210;-88
2024/01/18 05:01:17;;;;;;;19.27;14.60;;;2.30;99.90;;;;;;5024333;28;20209;-88
2024/01/18 05:04:04;;;;;;;19.58;15.23;;;2.40;99.90;;;;;;5020112;28;20289;-88
2024/01/18 05:06:49;;;;;;;20.17;15.90;;;2.30;99.90;;;;;;5032972;28;20216;-88
2024/01/18 05:09:41;;;;;;;21.02;16.65;;;2.30;99.90;;;;;;5024231;28;20295;-89
2024/01/18 05:12:28;;;;;;;20.65;15.73;;;2.30;99.90;;;;;;5024771;28;20334;-88
2024/01/18 05:15:14;;;;;;;21.58;16.48;;;2.20;99.90;;;;;;5028903;28;20340;-88
2024/01/18 05:18:00;;;;;;;23.35;17.05;;;2.30;99.90;;;;;;5023614;28;20210;-89
2024/01/18 05:20:48;;;;;;;21.50;17.02;;;2.30;99.90;;;;;;5021767;28;20190;-89
2024/01/18 05:23:36;;;;;;;22.40;16.90;;;2.40;99.90;;;;;;5021761;28;20226;-88
2024/01/18 05:26:22;;;;;;;27.48;18.80;;;2.30;99.90;;;;;;5024433;28;20291;-88
2024/01/18 05:29:11;;;;;;;22.10;17.20;;;2.30;99.90;;;;;;5029485;28;20281;-88
2024/01/18 05:31:57;;;;;;;25.55;17.92;;;2.30;99.90;;;;;;5029717;28;20214;-90
2024/01/18 05:34:43;;;;;;;23.70;17.27;;;2.40;99.90;;;;;;5022124;28;20225;-90
2024/01/18 05:37:28;;;;;;;19.63;15.10;;;2.40;99.90;;;;;;5022863;28;20764;-89
2024/01/18 05:40:14;;;;;;;19.55;14.32;;;2.40;99.90;;;;;;5033935;28;20238;-89
2024/01/18 05:43:00;;;;;;;23.33;14.40;;;2.40;99.90;;;;;;5032428;28;20302;-88
2024/01/18 05:45:47;;;;;;;18.15;12.20;;;2.30;99.90;;;;;;5023083;28;20217;-89
2024/01/18 05:48:33;;;;;;;17.13;13.50;;;2.30;99.90;;;;;;5023529;28;20206;-89
2024/01/18 05:51:19;;;;;;;15.52;11.93;;;2.30;99.90;;;;;;5039912;28;20225;-88
2024/01/18 05:54:05;;;;;;;14.60;11.55;;;2.30;99.90;;;;;;5039097;28;20301;-87
2024/01/18 05:56:51;;;;;;;14.63;11.52;;;2.20;99.90;;;;;;5031844;28;20712;-89
2024/01/18 05:59:37;;;;;;;14.23;10.40;;;2.20;99.90;;;;;;5018815;28;20276;-88
2024/01/18 06:02:24;;;;;;;13.05;10.50;;;2.30;99.90;;;;;;5030483;28;20275;-89
2024/01/18 06:05:11;;;;;;;11.77;10.27;;;2.30;99.90;;;;;;5028785;28;20214;-89
2024/01/18 06:07:56;;;;;;;12.48;10.75;;;2.30;99.90;;;;;;5021731;28;20202;-89
2024/01/18 06:10:47;;;;;;;13.85;11.35;;;2.20;99.90;;;;;;5020703;28;22127;-88
2024/01/18 06:13:33;;;;;;;12.45;10.15;;;2.20;99.90;;;;;;5021328;28;20217;-88
2024/01/18 06:16:19;;;;;;;13.77;11.30;;;2.10;99.90;;;;;;5027813;28;20210;-89
2024/01/18 06:19:06;;;;;;;13.07;11.63;;;2.10;99.90;;;;;;5017117;28;20292;-89
2024/01/18 06:21:52;;;;;;;13.20;10.95;;;2.10;99.90;;;;;;5022059;28;20206;-88
2024/01/18 06:24:38;;;;;;;16.48;11.82;;;2.00;99.90;;;;;;5023082;28;20218;-89
2024/01/18 06:27:24;;;;;;;14.25;11.90;;;2.00;99.90;;;;;;5025253;28;20212;-89
2024/01/18 06:30:13;;;;;;;14.25;11.45;;;2.00;99.90;;;;;;5024264;28;20267;-89
2024/01/18 06:32:59;;;;;;;13.95;11.35;;;2.00;99.90;;;;;;5021275;28;20815;-89
2024/01/18 06:35:46;;;;;;;13.20;11.38;;;2.00;99.90;;;;;;5019393;28;20240;-90
2024/01/18 06:38:31;;;;;;;14.15;12.32;;;2.10;99.90;;;;;;5025562;28;20607;-89
2024/01/18 06:41:17;;;;;;;13.13;11.57;;;2.10;99.90;;;;;;5024592;28;20248;-88
2024/01/18 06:44:03;;;;;;;14.88;13.27;;;2.10;99.90;;;;;;5023094;28;20222;-88
2024/01/18 06:46:48;;;;;;;13.65;12.05;;;2.00;99.90;;;;;;5029147;28;20345;-89
2024/01/18 06:49:34;;;;;;;14.07;12.10;;;2.00;99.90;;;;;;5019379;28;20871;-88
2024/01/18 06:52:21;;;;;;;15.82;12.30;;;2.00;99.90;;;;;;5025056;28;20213;-88
2024/01/18 06:55:08;;;;;;;16.80;13.82;;;2.00;99.90;;;;;;5025320;28;20205;-88
2024/01/18 06:57:53;;;;;;;15.90;12.15;;;2.10;99.90;;;;;;5019735;28;20198;-88
2024/01/18 07:00:39;;;;;;;16.48;13.85;;;2.10;99.90;;;;;;5022405;28;20211;-87
2024/01/18 07:03:25;;;;;;;15.95;12.80;;;1.90;99.90;;;;;;5024292;28;20226;-88
2024/01/18 07:06:11;;;;;;;15.85;13.05;;;1.90;99.90;;;;;;5018688;28;20217;-89
2024/01/18 07:08:58;;;;;;;15.82;12.60;;;2.00;99.90;;;;;;5022785;28;20217;-88
2024/01/18 07:11:44;;;;;;;14.60;12.20;;;2.10;99.90;;;;;;5013611;28;20255;-89
2024/01/18 07:14:30;;;;;;;15.80;12.52;;;2.10;99.90;;;;;;5022736;28;20253;-87
2024/01/18 07:17:16;;;;;;;18.48;14.52;;;2.10;99.90;;;;;;5030323;28;20583;-88
2024/01/18 07:20:03;;;;;;;14.93;13.23;;;2.00;99.90;;;;;;5026625;28;20584;-87
2024/01/18 07:22:49;;;;;;;15.50;12.70;;;2.00;99.90;;;;;;5026319;28;20225;-89
2024/01/18 07:25:36;;;;;;;16.70;13.43;;;2.00;99.90;;;;;;5023294;28;20208;-89
2024/01/18 07:28:21;;;;;;;15.52;12.80;;;1.90;99.90;;;;;;5014868;28;20688;-89
2024/01/18 07:31:07;;;;;;;14.75;12.68;;;1.90;99.90;;;;;;5035255;28;20733;-89
2024/01/18 07:33:53;;;;;;;14.40;10.65;;;1.80;99.90;;;;;;5022772;28;20704;-89
2024/01/18 07:36:39;;;;;;;12.05;10.45;;;1.80;99.90;;;;;;5021084;28;20203;-88
2024/01/18 07:39:24;;;;;;;12.23;9.27;;;1.80;99.90;;;;;;5020347;28;20209;-88
2024/01/18 07:42:11;;;;;;;15.60;10.85;;;1.80;99.90;;;;;;5024774;28;20227;-89
2024/01/18 07:44:58;;;;;;;11.98;9.13;;;1.80;99.90;;;;;;5027342;28;20213;-89
2024/01/18 07:47:44;;;;;;;9.98;8.57;;;1.80;99.90;;;;;;5026876;28;20570;-89
2024/01/18 07:50:30;;;;;;;12.75;9.90;;;1.80;99.90;;;;;;5020816;28;20222;-87
2024/01/18 07:53:15;;;;;;;11.85;9.40;;;1.80;99.90;;;;;;5027631;28;20611;-89
2024/01/18 07:56:01;;;;;;;11.73;9.18;;;1.80;99.90;;;;;;5026231;28;20628;-89
2024/01/18 07:58:48;;;;;;;10.82;9.10;;;1.80;99.90;;;;;;5021339;28;20206;-88
2024/01/18 08:01:33;;;;;;;11.38;8.60;;;1.80;99.90;;;;;;5029768;28;20193;-88
2024/01/18 08:04:20;;;;;;;11.82;8.93;;;1.80;99.90;;;;;;5048427;28;20225;-88
2024/01/18 08:07:06;;;;;;;12.63;9.75;;;1.90;99.90;;;;;;5044711;28;20198;-88
2024/01/18 08:09:51;;;;;;;14.30;9.95;;;1.90;99.90;;;;;;5041891;28;20241;-89
2024/01/18 08:12:37;;;;;;;13.43;9.75;;;1.90;99.90;;;;;;5043522;28;20231;-88
2024/01/18 08:15:24;;;;;;;12.05;9.43;;;1.80;99.90;;;;;;5049279;28;20282;-88
2024/01/18 08:18:10;;;;;;;12.00;9.73;;;1.80;99.90;;;;;;5047295;28;20707;-89
2024/01/18 08:20:56;;;;;;;14.93;10.10;;;1.90;99.90;;;;;;5046709;28;20213;-88
2024/01/18 08:23:41;;;;;;;12.25;10.18;;;1.90;99.90;;;;;;5040721;28;20352;-88
2024/01/18 08:26:29;;;;;;;10.68;9.48;;;1.80;99.90;;;;;;5048579;28;20296;-88
2024/01/18 08:29:15;;;;;;;14.23;9.63;;;1.70;99.90;;;;;;5047993;28;20741;-88
2024/01/18 08:32:03;;;;;;;14.10;9.80;;;1.70;99.90;;;;;;5037089;28;20753;-88
2024/01/18 08:34:48;;;;;;;12.73;9.70;;;1.70;99.90;;;;;;5036259;28;20293;-88
2024/01/18 08:37:35;;;;;;;13.63;9.50;;;1.70;99.90;;;;;;5047097;28;20220;-89
2024/01/18 08:40:21;;;;;;;14.63;10.82;;;1.70;99.90;;;;;;5048265;28;20347;-88
2024/01/18 08:43:09;;;;;;;15.85;11.02;;;1.70;99.90;;;;;;5042526;28;20218;-88
2024/01/18 08:45:55;;;;;;;15.00;10.57;;;1.80;99.90;;;;;;5035287;28;20205;-87
2024/01/18 08:48:42;;;;;;;12.45;9.93;;;1.70;99.90;;;;;;5040062;28;20267;-88
2024/01/18 08:51:27;;;;;;;11.65;8.55;;;1.70;99.90;;;;;;5040507;28;20209;-88
2024/01/18 08:54:17;;;;;;;11.13;7.68;;;1.70;99.90;;;;;;5038680;28;20229;-88
2024/01/18 08:57:03;;;;;;;10.60;7.63;;;1.70;99.90;;;;;;5043065;28;20269;-89
2024/01/18 08:59:48;;;;;;;11.57;8.90;;;1.70;99.90;;;;;;5040709;28;20244;-87
2024/01/18 09:02:35;;;;;;;10.73;8.48;;;1.70;99.90;;;;;;5048919;28;20243;-89
2024/01/18 09:05:22;;;;;;;13.63;9.80;;;1.60;99.90;;;;;;5045750;28;20691;-89
2024/01/18 09:08:10;;;;;;;12.75;10.65;;;1.70;99.90;;;;;;5041053;28;20240;-89
2024/01/18 09:10:56;;;;;;;14.02;10.02;;;1.70;99.90;;;;;;5038916;28;20282;-87
2024/01/18 09:13:43;;;;;;;16.73;11.75;;;1.70;99.90;;;;;;5038095;28;20374;-93
2024/01/18 09:16:30;;;;;;;12.82;9.88;;;1.60;99.90;;;;;;5054808;28;20275;-86
2024/01/18 09:19:16;;;;;;;12.32;9.23;;;1.60;99.90;;;;;;5046729;28;20243;-90
2024/01/18 09:22:03;;;;;;;13.93;9.95;;;1.60;99.90;;;;;;5040933;28;20279;-89
2024/01/18 09:24:50;;;;;;;12.30;9.57;;;1.60;99.90;;;;;;5051489;28;20256;-89
2024/01/18 09:27:36;;;;;;;9.07;7.47;;;1.70;99.90;;;;;;5049831;28;20200;-89
2024/01/18 09:30:23;;;;;;;15.05;11.80;;;1.60;99.90;;;;;;5050134;28;20217;-88
2024/01/18 09:33:09;;;;;;;15.80;9.75;;;1.60;99.90;;;;;;5044189;28;20301;-88
2024/01/18 09:35:55;;;;;;;11.35;8.93;;;1.60;99.90;;;;;;5043690;28;20201;-89
2024/01/18 09:38:42;;;;;;;13.10;9.95;;;1.70;99.90;;;;;;5045273;28;20227;-89
2024/01/18 09:41:29;;;;;;;12.32;9.13;;;1.60;99.90;;;;;;5044894;28;20248;-89
2024/01/18 09:44:15;;;;;;;13.48;9.55;;;1.50;99.90;;;;;;5043835;28;20310;-89
2024/01/18 09:47:01;;;;;;;14.95;10.32;;;1.50;99.90;;;;;;5039301;28;20202;-89
2024/01/18 09:49:48;;;;;;;12.50;9.80;;;1.50;99.90;;;;;;5044236;28;20204;-89
2024/01/18 09:52:34;;;;;;;13.57;10.85;;;1.50;99.90;;;;;;5038203;28;20298;-88
2024/01/18 09:55:21;;;;;;;13.00;9.75;;;1.50;99.90;;;;;;5047094;28;20694;-89
2024/01/18 09:58:12;;;;;;;14.40;9.65;;;1.50;99.90;;;;;;5040904;28;20279;-89
2024/01/18 10:00:59;;;;;;;13.75;10.00;;;1.60;99.90;;;;;;5049373;28;20660;-88
2024/01/18 10:03:45;;;;;;;11.73;9.65;;;1.60;99.90;;;;;;5047437;28;20225;-89
2024/01/18 10:06:31;;;;;;;14.00;10.13;;;1.60;99.90;;;;;;5051220;28;20209;-89
2024/01/18 10:09:19;;;;;;;14.57;10.77;;;1.70;99.90;;;;;;5045336;28;20247;-89
2024/01/18 10:12:07;;;;;;;13.95;10.55;;;1.70;99.90;;;;;;5038792;28;20280;-89
2024/01/18 10:14:52;;;;;;;15.40;10.82;;;1.70;99.90;;;;;;5045429;28;20197;-89
2024/01/18 10:17:39;;;;;;;12.07;9.10;;;1.70;99.90;;;;;;5049147;28;20200;-90
2024/01/18 10:20:26;;;;;;;11.38;9.50;;;1.80;99.90;;;;;;5046595;28;20208;-89
2024/01/18 10:23:13;;;;;;;14.73;10.45;;;1.80;99.90;;;;;;5044710;28;20220;-91
2024/01/18 10:25:59;;;;;;;12.63;10.18;;;1.90;99.90;;;;;;5056046;28;20211;-91
2024/01/18 10:28:47;;;;;;;14.77;11.13;;;1.70;99.90;;;;;;5052705;28;20257;-90
2024/01/18 10:31:33;;;;;;;11.82;9.38;;;1.70;99.90;;;;;;5053503;28;20263;-88
2024/01/18 10:34:20;;;;;;;14.35;11.00;;;1.80;99.90;;;;;;5047938;28;20229;-89
2024/01/18 10:37:08;;;;;;;15.75;11.60;;;1.80;99.90;;;;;;5065714;28;20184;-90
2024/01/18 10:39:54;;;;;;;12.00;9.35;;;1.80;99.90;;;;;;5038041;28;20201;-89
2024/01/18 10:42:41;;;;;;;15.18;10.80;;;1.90;99.90;;;;;;5042897;28;20244;-89
2024/01/18 10:45:30;;;;;;;16.08;10.95;;;1.90;99.90;;;;;;5041715;28;20193;-89
2024/01/18 10:48:20;;;;;;;13.90;9.63;;;1.90;99.90;;;;;;5037808;28;20207;-89
2024/01/18 10:51:08;;;;;;;11.57;9.23;;;1.90;99.90;;;;;;5040223;28;20189;-89
2024/01/18 10:53:55;;;;;;;14.10;9.77;;;1.90;99.90;;;;;;5043880;28;20334;-89
2024/01/18 10:56:41;;;;;;;10.55;8.65;;;2.10;99.90;;;;;;5038468;28;20252;-89
2024/01/18 10:59:28;;;;;;;12.65;9.85;;;2.10;99.90;;;;;;5040786;28;20212;-89
2024/01/18 11:02:16;;;;;;;11.65;9.48;;;2.10;99.90;;;;;;5052500;28;20197;-89
2024/01/18 11:05:03;;;;;;;13.63;9.15;;;2.10;99.90;;;;;;5037571;28;20197;-89
2024/01/18 11:07:49;;;;;;;10.38;8.60;;;2.20;99.90;;;;;;5035225;28;20210;-89
2024/01/18 11:10:36;;;;;;;13.40;10.02;;;2.20;99.90;;;;;;5038933;28;20260;-89
2024/01/18 11:13:21;;;;;;;12.68;8.70;;;2.20;99.90;;;;;;5037642;28;20238;-89
2024/01/18 11:16:08;;;;;;;10.52;8.23;;;2.20;99.90;;;;;;5049134;28;20197;-89
2024/01/18 11:19:01;;;;;;;13.25;9.75;;;2.30;99.90;;;;;;5038890;28;20285;-88
2024/01/18 11:21:47;;;;;;;13.60;9.43;;;2.30;99.90;;;;;;5054723;28;20201;-89
2024/01/18 11:24:32;;;;;;;14.98;10.05;;;2.40;99.90;;;;;;5046093;28;20228;-89
2024/01/18 11:27:19;;;;;;;10.20;7.50;;;2.50;99.90;;;;;;5041556;28;20220;-89
2024/01/18 11:30:09;;;;;;;9.77;7.95;;;2.40;99.90;;;;;;5036421;28;20213;-89
2024/01/18 11:32:55;;;;;;;11.65;8.00;;;2.40;99.90;;;;;;5042656;28;21022;-89
2024/01/18 11:35:43;;;;;;;8.10;6.18;;;2.40;99.90;;;;;;5037810;28;20209;-87
2024/01/18 11:38:32;;;;;;;10.20;7.15;;;2.40;99.90;;;;;;5036151;28;20656;-90
2024/01/18 11:41:26;;;;;;;11.55;7.47;;;2.30;99.90;;;;;;5044824;28;20201;-91
2024/01/18 11:44:12;;;;;;;10.35;7.20;;;2.30;99.90;;;;;;5050981;28;20226;-89
2024/01/18 11:46:59;;;;;;;10.90;6.60;;;2.30;99.90;;;;;;5056118;28;20734;-91
2024/01/18 11:49:44;;;;;;;11.95;8.60;;;2.30;99.90;;;;;;5054822;28;20328;-91
2024/01/18 11:52:33;;;;;;;13.60;9.20;;;2.30;99.90;;;;;;5052885;28;20214;-90
2024/01/18 11:55:19;;;;;;;9.38;7.50;;;2.40;99.90;;;;;;5051951;28;20309;-90
2024/01/18 11:58:05;;;;;;;9.70;7.97;;;2.40;99.90;;;;;;5047141;28;20204;-89
2024/01/18 12:00:51;;;;;;;11.40;8.25;;;2.40;99.90;;;;;;5045758;28;20216;-90
2024/01/18 12:03:37;;;;;;;12.43;8.43;;;2.50;99.90;;;;;;5059082;28;20291;-89
2024/01/18 12:06:26;;;;;;;10.95;7.70;;;2.50;99.90;;;;;;5055184;28;20220;-89
2024/01/18 12:09:16;;;;;;;12.30;9.57;;;2.60;99.90;;;;;;5043704;28;20592;-89
2024/01/18 12:12:02;;;;;;;12.27;9.63;;;2.60;99.90;;;;;;5049205;28;20271;-90
2024/01/18 12:14:49;;;;;;;12.32;8.73;;;2.50;99.90;;;;;;5054520;28;20200;-89
2024/01/18 12:17:34;;;;;;;14.00;10.35;;;2.50;99.90;;;;;;5048029;28;20285;-90
2024/01/18 12:20:20;;;;;;;10.77;7.78;;;2.50;99.90;;;;;;5054107;28;20208;-89
2024/01/18 12:23:13;;;;;;;11.68;8.68;;;2.60;99.90;;;;;;5050244;28;20602;-89
2024/01/18 12:26:00;;;;;;;16.90;9.27;;;2.60;99.90;;;;;;5050323;28;20204;-89
2024/01/18 12:28:47;;;;;;;10.65;8.50;;;2.70;99.90;;;;;;5051072;28;20216;-89
2024/01/18 12:31:35;;;;;;;11.00;8.80;;;2.70;99.90;;;;;;5052531;28;20217;-89
2024/01/18 12:34:22;;;;;;;13.15;8.82;;;2.70;99.90;;;;;;5052176;28;20253;-89
2024/01/18 12:37:08;;;;;;;13.88;9.60;;;2.70;99.90;;;;;;5051679;28;20277;-89
2024/01/18 12:39:54;;;;;;;12.88;9.48;;;2.80;99.90;;;;;;5051195;28;20280;-89
2024/01/18 12:42:49;;;;;;;11.73;8.32;;;2.70;99.90;;;;;;5048262;28;20241;-89
2024/01/18 12:45:35;;;;;;;14.60;9.65;;;2.70;99.90;;;;;;5043908;28;20201;-90
2024/01/18 12:48:20;;;;;;;12.20;10.00;;;2.70;99.90;;;;;;5051191;28;20296;-89
2024/01/18 12:51:06;;;;;;;17.02;10.40;;;2.80;99.90;;;;;;5038549;28;20206;-89
2024/01/18 12:53:52;;;;;;;17.52;10.10;;;2.80;99.90;;;;;;5051825;28;20306;-90
2024/01/18 12:56:37;;;;;;;10.50;8.68;;;2.80;99.90;;;;;;5089118;22;20616;-75
2024/01/18 12:59:26;;;;;;;15.00;10.55;;;2.80;99.90;;;;;;5067845;28;20587;-71
2024/01/18 13:02:12;;;;;;;13.68;9.30;;;2.70;99.90;;;;;;5065042;28;20267;-73
2024/01/18 13:04:58;;;;;;;16.13;9.70;;;2.70;99.90;;;;;;5060077;28;20201;-71
2024/01/18 13:07:44;;;;;;;12.57;9.50;;;2.80;99.90;;;;;;5063144;28;20282;-72
2024/01/18 13:10:30;;;;;;;14.32;9.68;;;2.70;99.90;;;;;;5061736;28;20204;-71
2024/01/18 13:13:16;;;;;;;12.27;9.60;;;2.70;99.90;;;;;;5071155;28;20221;-71
2024/01/18 13:16:04;;;;;;;15.38;10.70;;;2.70;99.90;;;;;;5067909;28;20208;-73
2024/01/18 13:18:50;;;;;;;15.07;10.57;;;2.70;99.90;;;;;;5060490;28;20240;-70
2024/01/18 13:21:35;;;;;;;14.00;11.00;;;2.70;99.90;;;;;;5064638;28;20343;-72
2024/01/18 13:24:22;;;;;;;14.98;9.98;;;2.80;99.90;;;;;;5067982;28;20205;-72
2024/01/18 13:27:07;;;;;;;15.90;10.77;;;2.70;99.90;;;;;;5062326;28;20314;-72
2024/01/18 13:29:53;;;;;;;26.27;18.73;;;2.70;99.90;;;;;;5068861;28;20204;-72
2024/01/18 13:32:40;;;;;;;31.20;22.20;;;2.70;99.90;;;;;;5061691;28;20231;-72
2024/01/18 13:35:26;;;;;;;26.52;16.88;;;2.70;99.90;;;;;;5063278;28;20224;-72
2024/01/18 13:38:11;;;;;;;15.35;11.57;;;2.70;99.90;;;;;;5067151;28;20683;-72
2024/01/18 13:40:57;;;;;;;18.08;11.85;;;2.70;99.90;;;;;;5066587;28;20224;-69
2024/01/18 13:43:43;;;;;;;23.35;14.02;;;2.70;99.90;;;;;;5059566;28;20706;-72
2024/01/18 13:46:29;;;;;;;25.58;16.60;;;2.60;99.90;;;;;;5068473;28;20286;-72
2024/01/18 13:49:16;;;;;;;20.88;14.40;;;2.70;99.90;;;;;;5069243;28;20250;-73
2024/01/18 13:52:02;;;;;;;36.63;21.92;;;2.70;99.90;;;;;;5065370;28;20663;-72
2024/01/18 13:54:47;;;;;;;34.72;22.25;;;2.80;99.90;;;;;;5065690;28;20223;-72
2024/01/18 13:57:33;;;;;;;24.02;17.20;;;2.80;99.90;;;;;;5067361;28;20204;-72
2024/01/18 14:00:19;;;;;;;17.33;11.80;;;2.80;99.90;;;;;;5067562;28;20227;-73
2024/01/18 14:03:06;;;;;;;20.92;13.65;;;2.70;99.90;;;;;;5062146;28;20243;-73
2024/01/18 14:05:54;;;;;;;23.08;16.65;;;2.70;99.90;;;;;;5067721;28;20567;-72
2024/01/18 14:08:39;;;;;;;18.85;12.52;;;2.80;99.90;;;;;;5067710;28;20216;-72
2024/01/18 14:11:25;;;;;;;25.73;13.60;;;2.80;99.90;;;;;;5062019;28;20266;-73
2024/01/18 14:14:10;;;;;;;14.18;10.35;;;2.80;99.90;;;;;;5068633;28;20232;-73
2024/01/18 14:16:57;;;;;;;12.45;9.38;;;2.90;99.90;;;;;;5067293;28;20234;-73
2024/01/18 14:19:42;;;;;;;17.83;9.50;;;2.80;99.90;;;;;;5059134;28;20200;-73
2024/01/18 14:22:29;;;;;;;19.90;12.07;;;2.90;99.90;;;;;;5072045;28;20219;-72